Time;durP1;ratioP1;P1;durP2;ratioP2;P2;SDS_P1;SDS_P2;PMS_P1;PMS_P2;Temp;Humidity;BMP_temperature;BMP_pressure;BME280_temperature;BME280_humidity;BME280_pressure;Samples;Min_cycle;Max_cycle;Signal;HPM_P1;HPM_P2
2023/05/19 00:01:09;;;;;;;5.97;5.35;;;;;;;13.60;83.89;95254.81;5007658;28;20204;-64
2023/05/19 00:03:39;;;;;;;4.47;4.18;;;;;;;13.72;82.52;95258.56;5005919;28;20212;-63
2023/05/19 00:06:08;;;;;;;4.85;4.55;;;;;;;13.69;82.89;95248.47;5008782;28;20203;-64
2023/05/19 00:08:37;;;;;;;4.25;3.95;;;;;;;13.72;82.78;95260.28;5006994;28;20215;-63
2023/05/19 00:11:06;;;;;;;6.28;4.57;;;;;;;13.90;82.05;95254.38;5008254;28;20330;-64
2023/05/19 00:13:33;;;;;;;4.93;4.53;;;;;;;13.90;81.98;95254.38;5008370;28;20207;-64
2023/05/19 00:16:01;;;;;;;9.73;5.13;;;;;;;13.87;81.96;95249.38;4978438;28;20300;-65
2023/05/19 00:18:28;;;;;;;6.25;5.07;;;;;;;13.91;82.16;95243.25;4979416;28;21299;-63
2023/05/19 00:20:55;;;;;;;5.28;4.88;;;;;;;13.88;81.75;95228.88;4978417;28;20257;-66
2023/05/19 00:23:21;;;;;;;7.20;6.60;;;;;;;14.01;81.29;95234.31;4980273;28;21669;-64
2023/05/19 00:25:48;;;;;;;6.05;5.45;;;;;;;13.89;82.34;95235.66;4979210;28;20709;-65
2023/05/19 00:28:16;;;;;;;6.50;5.95;;;;;;;13.87;82.35;95234.06;4979875;28;21073;-64
2023/05/19 00:30:43;;;;;;;6.72;6.18;;;;;;;13.82;82.29;95241.13;4977323;28;20252;-67
2023/05/19 00:33:09;;;;;;;6.90;6.45;;;;;;;13.83;82.67;95240.22;4977364;28;20701;-66
2023/05/19 00:35:36;;;;;;;7.28;6.68;;;;;;;13.75;83.17;95242.28;4974816;28;20326;-63
2023/05/19 00:38:03;;;;;;;7.30;6.60;;;;;;;13.78;82.97;95242.97;4977383;28;21244;-63
2023/05/19 00:40:31;;;;;;;6.05;5.55;;;;;;;13.75;83.15;95238.00;4980020;28;20406;-63
2023/05/19 00:42:58;;;;;;;8.00;6.53;;;;;;;13.68;83.42;95235.75;4979768;28;20208;-64
2023/05/19 00:45:27;;;;;;;6.43;5.93;;;;;;;13.67;83.71;95223.88;4980368;28;20235;-65
2023/05/19 00:47:54;;;;;;;6.70;6.18;;;;;;;13.57;84.04;95229.41;4981052;28;20210;-64
2023/05/19 00:50:21;;;;;;;6.93;6.22;;;;;;;13.51;83.38;95223.72;5001689;28;21033;-64
2023/05/19 00:52:48;;;;;;;7.03;6.43;;;;;;;13.40;84.35;95230.97;5005759;28;20212;-65
2023/05/19 00:55:15;;;;;;;7.50;6.63;;;;;;;13.32;85.28;95230.50;5005095;28;20665;-65
2023/05/19 00:57:43;;;;;;;9.05;7.75;;;;;;;13.30;84.76;95225.44;5006465;28;20269;-64
2023/05/19 01:00:11;;;;;;;7.97;7.28;;;;;;;13.26;85.48;95229.84;5005486;28;20303;-67
2023/05/19 01:02:39;;;;;;;7.78;7.07;;;;;;;13.22;85.51;95228.31;5005328;28;20218;-65
2023/05/19 01:05:06;;;;;;;8.27;7.65;;;;;;;13.18;85.29;95226.78;5004581;28;20313;-64
2023/05/19 01:07:33;;;;;;;8.23;7.60;;;;;;;13.22;85.13;95222.38;5005078;28;20297;-64
2023/05/19 01:10:00;;;;;;;8.00;7.30;;;;;;;13.21;85.26;95231.75;5005335;28;20321;-64
2023/05/19 01:12:27;;;;;;;9.77;8.65;;;;;;;13.23;85.54;95240.19;5004750;28;20226;-64
2023/05/19 01:14:54;;;;;;;9.43;8.55;;;;;;;13.06;86.43;95228.97;5005953;28;20421;-64
2023/05/19 01:17:29;;;;;;;10.20;9.25;;;;;;;12.92;86.45;95230.34;5005468;28;20216;-63
2023/05/19 01:20:05;;;;;;;9.07;8.27;;;;;;;12.87;87.34;95232.25;5004760;28;20278;-65
2023/05/19 01:23:03;;;;;;;9.93;9.15;;;;;;;12.84;87.38;95232.38;4999448;28;20208;-63
2023/05/19 01:26:03;;;;;;;10.65;9.55;;;;;;;12.73;87.98;95229.41;4972605;28;20267;-63
2023/05/19 01:29:07;;;;;;;9.02;8.23;;;;;;;12.76;88.26;95219.09;4976131;28;20231;-64
2023/05/19 01:31:37;;;;;;;10.77;9.68;;;;;;;12.75;88.16;95227.63;4956839;28;20230;-65
2023/05/19 01:34:04;;;;;;;15.05;9.23;;;;;;;12.67;88.44;95229.66;4978822;28;20617;-65
2023/05/19 01:36:32;;;;;;;10.75;9.80;;;;;;;12.70;88.77;95227.00;4979277;28;20799;-65
2023/05/19 01:39:00;;;;;;;10.15;9.25;;;;;;;12.75;88.08;95227.63;4991735;28;20298;-64
2023/05/19 01:41:28;;;;;;;9.82;8.93;;;;;;;12.66;88.47;95238.19;5005094;28;20362;-64
2023/05/19 01:43:56;;;;;;;10.90;8.25;;;;;;;12.59;89.06;95247.00;5006050;28;20214;-65
2023/05/19 01:46:23;;;;;;;9.15;8.45;;;;;;;12.52;89.34;95232.81;5004510;28;20767;-66
2023/05/19 01:48:52;;;;;;;10.32;8.63;;;;;;;12.64;88.31;95239.97;5004931;28;20387;-63
2023/05/19 01:51:19;;;;;;;12.68;9.07;;;;;;;12.52;88.32;95241.28;5006904;28;20345;-66
2023/05/19 01:53:45;;;;;;;9.45;8.52;;;;;;;12.45;88.75;95233.91;5007248;28;20295;-62
2023/05/19 01:56:16;;;;;;;8.52;7.82;;;;;;;12.49;88.76;95245.66;5007522;28;20317;-65
2023/05/19 01:58:46;;;;;;;8.27;7.57;;;;;;;12.50;88.56;95243.06;5007582;28;20299;-65
2023/05/19 02:01:25;;;;;;;15.98;9.45;;;;;;;12.54;88.70;95239.50;5007233;28;20294;-64
2023/05/19 02:04:11;;;;;;;12.80;9.65;;;;;;;12.49;88.78;95240.56;5008134;28;20285;-66
2023/05/19 02:06:43;;;;;;;9.57;8.73;;;;;;;12.62;88.16;95230.75;5009456;28;20294;-66
2023/05/19 02:09:15;;;;;;;10.60;8.75;;;;;;;12.47;88.46;95242.34;5008876;28;20294;-64
2023/05/19 02:11:46;;;;;;;10.98;9.20;;;;;;;12.36;89.11;95240.22;5008251;28;20231;-64
2023/05/19 02:14:20;;;;;;;11.10;9.75;;;;;;;12.37;89.38;95246.13;5009229;28;20295;-64
2023/05/19 02:16:48;;;;;;;11.40;10.30;;;;;;;12.40;89.43;95246.00;5007790;28;20757;-63
2023/05/19 02:19:24;;;;;;;10.35;9.45;;;;;;;12.38;89.42;95232.47;5008335;28;20317;-64
2023/05/19 02:21:51;;;;;;;11.15;10.05;;;;;;;12.41;89.61;95242.56;5008452;28;20290;-64
2023/05/19 02:24:18;;;;;;;12.32;10.05;;;;;;;12.48;88.81;95249.09;5008850;28;20218;-65
2023/05/19 02:26:45;;;;;;;11.60;10.43;;;;;;;12.53;88.70;95242.13;5008432;28;20200;-65
2023/05/19 02:29:12;;;;;;;11.38;10.27;;;;;;;12.50;89.08;95249.88;5008350;28;20286;-64
2023/05/19 02:31:38;;;;;;;11.32;10.23;;;;;;;12.52;89.03;95240.44;5007360;28;20788;-64
2023/05/19 02:34:05;;;;;;;10.60;9.60;;;;;;;12.49;89.20;95250.75;5007885;28;20405;-64
2023/05/19 02:36:35;;;;;;;14.38;10.45;;;;;;;12.39;89.98;95247.72;5008142;28;20299;-62
2023/05/19 02:39:02;;;;;;;12.02;10.82;;;;;;;12.35;89.66;95247.91;5007417;28;20208;-65
2023/05/19 02:41:28;;;;;;;10.25;9.25;;;;;;;12.39;89.85;95251.97;5007554;28;20854;-65
2023/05/19 02:43:55;;;;;;;12.00;10.57;;;;;;;12.33;89.91;95244.59;5008471;28;20235;-64
2023/05/19 02:46:22;;;;;;;11.60;10.35;;;;;;;12.25;89.95;95252.50;5008376;28;20342;-64
2023/05/19 02:48:48;;;;;;;11.02;9.60;;;;;;;12.15;90.60;95254.56;4993448;28;20792;-65
2023/05/19 02:51:15;;;;;;;10.60;9.48;;;;;;;12.20;90.55;95265.41;4999014;28;21655;-67
2023/05/19 02:53:43;;;;;;;16.48;10.52;;;;;;;12.16;90.11;95256.22;4992216;28;20295;-65
2023/05/19 02:56:10;;;;;;;10.65;9.45;;;;;;;12.26;89.88;95249.06;4986395;28;20204;-65
2023/05/19 02:58:36;;;;;;;10.77;9.65;;;;;;;12.20;89.75;95257.78;5007485;28;20212;-65
2023/05/19 03:01:03;;;;;;;11.63;10.10;;;;;;;12.22;89.84;95255.16;5004339;28;20233;-64
2023/05/19 03:03:30;;;;;;;12.80;10.25;;;;;;;12.30;89.41;95254.91;5009159;28;21296;-65
2023/05/19 03:05:57;;;;;;;10.57;9.48;;;;;;;12.23;90.05;95264.47;5007472;28;20195;-62
2023/05/19 03:08:24;;;;;;;10.82;9.10;;;;;;;12.24;89.47;95266.97;5008369;28;20208;-64
2023/05/19 03:10:52;;;;;;;10.50;9.50;;;;;;;12.18;89.77;95272.28;4983345;28;20658;-63
2023/05/19 03:13:18;;;;;;;16.30;10.30;;;;;;;12.21;89.40;95261.97;4978870;28;20484;-63
2023/05/19 03:15:46;;;;;;;10.70;9.70;;;;;;;12.20;89.22;95260.31;4991492;28;21506;-63
2023/05/19 03:18:12;;;;;;;12.00;10.82;;;;;;;12.19;89.74;95268.00;5004683;28;20749;-66
2023/05/19 03:20:41;;;;;;;11.80;10.70;;;;;;;12.24;89.95;95271.22;5003576;28;20747;-66
2023/05/19 03:23:07;;;;;;;11.10;9.98;;;;;;;12.24;89.86;95271.22;5005472;28;20218;-65
2023/05/19 03:25:34;;;;;;;11.88;10.50;;;;;;;12.40;89.65;95267.22;5004777;28;20366;-66
2023/05/19 03:28:02;;;;;;;12.68;10.55;;;;;;;12.53;89.70;95267.59;5004642;28;20208;-66
2023/05/19 03:30:29;;;;;;;13.32;10.40;;;;;;;12.93;87.88;95267.72;5005999;28;20231;-67
2023/05/19 03:32:55;;;;;;;12.30;10.43;;;;;;;13.43;85.14;95261.50;5007119;28;20264;-66
2023/05/19 03:35:22;;;;;;;11.48;9.45;;;;;;;14.04;81.87;95259.72;5006666;28;20289;-65
2023/05/19 03:37:49;;;;;;;10.95;9.88;;;;;;;14.46;79.62;95261.28;5007534;28;20374;-66
2023/05/19 03:40:17;;;;;;;12.85;9.40;;;;;;;14.55;78.87;95260.88;5006302;28;20212;-65
2023/05/19 03:42:44;;;;;;;10.05;8.68;;;;;;;14.55;78.37;95266.81;5006673;28;20669;-68
2023/05/19 03:45:12;;;;;;;10.02;8.90;;;;;;;14.51;78.28;95272.13;5006068;28;20285;-67
2023/05/19 03:47:39;;;;;;;9.65;8.75;;;;;;;14.41;78.33;95273.44;5006352;28;20311;-68
2023/05/19 03:50:06;;;;;;;9.30;8.25;;;;;;;14.38;78.52;95269.25;5006194;28;20227;-66
2023/05/19 03:52:33;;;;;;;9.13;8.23;;;;;;;14.43;77.97;95271.66;5006239;28;20310;-66
2023/05/19 03:55:00;;;;;;;9.55;8.38;;;;;;;14.43;78.53;95277.59;5006055;28;20303;-66
2023/05/19 03:57:28;;;;;;;9.13;8.32;;;;;;;14.55;78.74;95276.22;5007419;28;20356;-66
2023/05/19 03:59:54;;;;;;;9.38;8.57;;;;;;;14.65;77.58;95274.88;5005279;28;20218;-65
2023/05/19 04:02:22;;;;;;;9.52;8.55;;;;;;;14.89;76.22;95278.84;5005988;28;20297;-66
2023/05/19 04:04:50;;;;;;;20.73;15.40;;;;;;;14.94;75.43;95286.31;5007020;28;20339;-66
2023/05/19 04:07:17;;;;;;;15.40;11.43;;;;;;;14.91;75.02;95284.75;5006275;28;20208;-67
2023/05/19 04:09:43;;;;;;;24.30;15.57;;;;;;;15.06;75.74;95287.50;5005390;28;20353;-66
2023/05/19 04:12:10;;;;;;;17.83;14.00;;;;;;;15.56;74.57;95292.75;5005727;28;20231;-67
2023/05/19 04:14:37;;;;;;;15.65;13.13;;;;;;;16.43;71.67;95290.84;5005682;28;20207;-68
2023/05/19 04:17:04;;;;;;;9.05;8.15;;;;;;;17.35;68.83;95283.19;5005980;28;20356;-68
2023/05/19 04:19:32;;;;;;;11.93;8.35;;;;;;;18.30;65.28;95275.13;5005954;28;20204;-68
2023/05/19 04:21:58;;;;;;;9.55;8.65;;;;;;;19.02;62.55;95277.50;5005364;28;20290;-67
2023/05/19 04:24:25;;;;;;;20.27;15.13;;;;;;;19.74;60.08;95280.63;5005495;28;21151;-69
2023/05/19 04:26:52;;;;;;;22.10;16.40;;;;;;;20.27;57.74;95283.94;5005714;28;20298;-69
2023/05/19 04:29:19;;;;;;;20.35;16.73;;;;;;;20.73;56.85;95284.19;5004752;28;20710;-67
2023/05/19 04:31:45;;;;;;;17.08;15.25;;;;;;;21.31;54.68;95280.06;5005663;28;20618;-68
2023/05/19 04:34:12;;;;;;;16.90;13.55;;;;;;;21.73;53.35;95278.72;5005297;28;20730;-67
2023/05/19 04:36:41;;;;;;;14.38;12.88;;;;;;;22.23;51.80;95277.53;5005597;28;20294;-69
2023/05/19 04:39:10;;;;;;;16.02;13.32;;;;;;;22.72;51.26;95284.94;5005533;28;20207;-69
2023/05/19 04:41:39;;;;;;;18.58;14.40;;;;;;;23.04;49.57;95274.66;5005888;28;20214;-68
2023/05/19 04:44:06;;;;;;;14.38;11.90;;;;;;;23.25;49.15;95286.88;5007032;28;20223;-66
2023/05/19 04:46:32;;;;;;;10.90;9.90;;;;;;;23.56;48.59;95278.28;5005589;28;20211;-68
2023/05/19 04:49:00;;;;;;;10.25;9.25;;;;;;;23.69;47.47;95280.72;5004415;28;20291;-69
2023/05/19 04:51:27;;;;;;;15.27;13.25;;;;;;;23.36;48.94;95285.06;5005228;28;20232;-68
2023/05/19 04:53:55;;;;;;;14.20;12.75;;;;;;;23.16;49.18;95283.25;5006481;28;20208;-69
2023/05/19 04:56:21;;;;;;;10.18;9.15;;;;;;;22.96;48.96;95279.63;5005246;28;20720;-66
2023/05/19 04:58:48;;;;;;;9.52;8.73;;;;;;;22.64;50.30;95286.47;5003337;28;20235;-67
2023/05/19 05:01:15;;;;;;;9.63;8.82;;;;;;;22.42;50.94;95281.31;5005000;28;20271;-68
2023/05/19 05:03:42;;;;;;;9.57;8.77;;;;;;;22.13;51.49;95292.09;5005646;28;20689;-67
2023/05/19 05:06:09;;;;;;;9.32;8.43;;;;;;;21.97;52.26;95294.19;5005596;28;21655;-68
2023/05/19 05:08:38;;;;;;;9.02;8.23;;;;;;;22.12;52.35;95293.03;5006017;28;20236;-69
2023/05/19 05:11:07;;;;;;;9.80;8.90;;;;;;;22.11;52.04;95288.81;5004882;28;20247;-69
2023/05/19 05:13:35;;;;;;;9.00;8.25;;;;;;;21.98;52.11;95295.81;5005207;28;20302;-67
2023/05/19 05:16:03;;;;;;;8.73;7.93;;;;;;;21.94;52.44;95297.00;5002666;28;20656;-67
2023/05/19 05:18:30;;;;;;;9.93;8.93;;;;;;;22.45;51.38;95294.03;5003977;28;21121;-68
2023/05/19 05:20:57;;;;;;;9.05;8.27;;;;;;;23.04;49.90;95297.97;5003185;28;20980;-68
2023/05/19 05:23:25;;;;;;;8.80;8.20;;;;;;;23.00;49.52;95291.41;5005740;28;20313;-69
2023/05/19 05:25:52;;;;;;;9.75;8.95;;;;;;;22.99;50.08;95284.59;5008166;28;20204;-69
2023/05/19 05:28:20;;;;;;;11.00;8.52;;;;;;;22.87;50.28;95282.94;5008114;28;20282;-68
2023/05/19 05:30:47;;;;;;;9.20;8.18;;;;;;;22.68;50.78;95290.47;5008449;28;20295;-67
2023/05/19 05:33:14;;;;;;;10.98;9.85;;;;;;;22.26;51.69;95290.25;5008763;28;20283;-68
2023/05/19 05:35:41;;;;;;;11.68;10.63;;;;;;;22.14;52.22;95298.94;5008045;28;20207;-68
2023/05/19 05:38:10;;;;;;;9.68;8.88;;;;;;;22.33;52.28;95291.41;5009131;28;20255;-67
2023/05/19 05:40:36;;;;;;;8.40;7.60;;;;;;;22.94;50.92;95291.91;5007920;28;20642;-67
2023/05/19 05:43:03;;;;;;;12.93;9.65;;;;;;;23.79;48.81;95289.38;5008680;28;22221;-67
2023/05/19 05:45:31;;;;;;;20.38;14.32;;;;;;;24.04;47.54;95285.56;5008200;28;20302;-68
2023/05/19 05:47:58;;;;;;;11.13;9.50;;;;;;;23.78;47.98;95289.50;5007974;28;20706;-68
2023/05/19 05:50:26;;;;;;;10.50;9.68;;;;;;;23.47;48.62;95294.56;5008118;28;20258;-69
2023/05/19 05:52:55;;;;;;;8.30;7.70;;;;;;;23.10;49.70;95299.28;5008593;28;21089;-68
2023/05/19 05:55:23;;;;;;;8.63;7.90;;;;;;;23.27;49.31;95303.09;5008504;28;20461;-68
2023/05/19 05:57:50;;;;;;;8.82;7.40;;;;;;;24.07;48.20;95296.53;5008431;28;22098;-69
2023/05/19 06:00:18;;;;;;;8.55;7.88;;;;;;;25.71;44.96;95302.31;5007502;28;20674;-69
2023/05/19 06:02:49;;;;;;;8.65;7.95;;;;;;;28.77;38.70;95300.75;5007530;28;20199;-67
2023/05/19 06:05:16;;;;;;;6.97;6.40;;;;;;;32.30;32.51;95293.50;5009579;28;20299;-69
2023/05/19 06:07:43;;;;;;;14.18;12.82;;;;;;;35.13;28.02;95294.78;5007216;28;20239;-69
2023/05/19 06:10:10;;;;;;;17.50;13.73;;;;;;;37.73;24.86;95299.53;5008209;28;20322;-71
2023/05/19 06:12:38;;;;;;;15.50;9.93;;;;;;;39.34;22.02;95296.06;5008220;28;20310;-70
2023/05/19 06:15:06;;;;;;;10.55;9.73;;;;;;;40.80;20.50;95284.81;5008477;28;20217;-70
2023/05/19 06:17:34;;;;;;;9.95;8.48;;;;;;;41.67;19.48;95296.19;5007380;28;20879;-69
2023/05/19 06:20:03;;;;;;;8.68;7.97;;;;;;;42.04;19.24;95293.13;5008751;28;20216;-70
2023/05/19 06:22:30;;;;;;;9.48;6.95;;;;;;;42.72;18.82;95284.03;5007213;28;20306;-69
2023/05/19 06:24:57;;;;;;;7.47;6.80;;;;;;;43.24;17.83;95284.50;5008021;28;20240;-70
2023/05/19 06:27:24;;;;;;;6.90;6.30;;;;;;;43.42;17.83;95286.03;5007786;28;20207;-70
2023/05/19 06:29:50;;;;;;;8.95;6.25;;;;;;;43.86;17.49;95285.94;5008457;28;20261;-71
2023/05/19 06:32:17;;;;;;;6.90;6.25;;;;;;;44.75;16.47;95278.09;5007469;28;20232;-70
2023/05/19 06:34:44;;;;;;;7.00;6.60;;;;;;;44.88;17.01;95282.22;5007266;28;20886;-71
2023/05/19 06:37:13;;;;;;;10.55;9.75;;;;;;;45.13;16.13;95284.19;5007918;28;20745;-72
2023/05/19 06:39:40;;;;;;;9.95;9.20;;;;;;;45.63;15.91;95281.72;5009207;28;20221;-73
2023/05/19 06:42:07;;;;;;;8.95;7.20;;;;;;;46.01;15.29;95271.59;5008324;28;20291;-67
2023/05/19 06:44:33;;;;;;;7.57;6.53;;;;;;;46.22;15.66;95269.72;5007765;28;20362;-70
2023/05/19 06:47:00;;;;;;;7.07;6.57;;;;;;;45.81;15.50;95266.16;5007734;28;20330;-70
2023/05/19 06:49:28;;;;;;;16.33;9.98;;;;;;;46.16;15.28;95276.16;5006667;28;21072;-69
2023/05/19 06:51:54;;;;;;;8.93;6.75;;;;;;;46.29;15.12;95281.78;5008007;28;20234;-71
2023/05/19 06:54:22;;;;;;;7.00;6.50;;;;;;;46.45;15.18;95279.13;5007437;28;20306;-71
2023/05/19 06:56:49;;;;;;;11.85;8.57;;;;;;;46.29;14.78;95287.16;5007690;28;20343;-68
2023/05/19 06:59:16;;;;;;;10.45;8.85;;;;;;;45.91;14.87;95285.78;5007104;28;20510;-69
2023/05/19 07:01:42;;;;;;;9.80;8.35;;;;;;;46.33;15.24;95288.25;5007483;28;20286;-70
2023/05/19 07:04:09;;;;;;;9.10;8.50;;;;;;;46.13;14.94;95293.63;5006992;28;20331;-70
2023/05/19 07:06:36;;;;;;;7.45;6.75;;;;;;;45.96;15.32;95288.53;5006448;28;21013;-70
2023/05/19 07:09:04;;;;;;;6.60;5.93;;;;;;;46.38;14.82;95290.16;5006677;28;20262;-70
2023/05/19 07:11:32;;;;;;;6.60;5.72;;;;;;;46.71;14.78;95294.16;5008114;28;20259;-71
2023/05/19 07:13:59;;;;;;;6.38;5.90;;;;;;;46.63;14.54;95289.28;5061994;22;20320;-71
2023/05/19 07:16:25;;;;;;;6.47;6.00;;;;;;;46.21;15.20;95293.09;5042568;28;20272;-69
2023/05/19 07:18:52;;;;;;;6.05;5.72;;;;;;;46.27;14.86;95293.91;5042569;28;20727;-71
2023/05/19 07:21:19;;;;;;;6.00;5.60;;;;;;;46.39;15.06;95295.25;5041950;28;21533;-70
2023/05/19 07:23:45;;;;;;;9.00;6.28;;;;;;;46.46;14.89;95296.88;5042267;28;20777;-70
2023/05/19 07:26:12;;;;;;;5.78;5.47;;;;;;;46.64;14.47;95305.16;5043204;28;20234;-71
2023/05/19 07:28:41;;;;;;;22.13;19.90;;;;;;;46.40;14.46;95302.25;5042327;28;20282;-70
2023/05/19 07:31:07;;;;;;;8.68;7.90;;;;;;;45.56;14.91;95294.59;5042114;28;20213;-70
2023/05/19 07:33:34;;;;;;;10.90;9.98;;;;;;;45.98;14.40;95291.75;5044058;28;20317;-71
2023/05/19 07:36:01;;;;;;;6.20;5.78;;;;;;;45.81;14.48;95301.06;5043440;28;20891;-71
2023/05/19 07:38:28;;;;;;;7.57;5.65;;;;;;;45.81;14.76;95290.34;5043830;28;20268;-72
2023/05/19 07:40:54;;;;;;;6.22;5.82;;;;;;;46.63;14.36;95281.22;5043755;28;20217;-69
2023/05/19 07:43:21;;;;;;;6.28;5.75;;;;;;;47.34;13.97;95292.59;5043133;28;20355;-68
2023/05/19 07:45:49;;;;;;;5.75;5.15;;;;;;;47.94;14.15;95293.38;5043639;28;20297;-70
2023/05/19 07:48:17;;;;;;;5.82;5.53;;;;;;;47.25;13.82;95291.59;5043972;28;20328;-70
2023/05/19 07:50:44;;;;;;;6.20;5.70;;;;;;;47.41;14.17;95289.66;5043191;28;20313;-70
2023/05/19 07:53:10;;;;;;;5.97;5.40;;;;;;;47.45;13.74;95282.63;5043775;28;21699;-70
2023/05/19 07:55:37;;;;;;;8.70;7.10;;;;;;;46.73;14.80;95290.13;5043570;28;20352;-69
2023/05/19 07:58:04;;;;;;;6.53;6.03;;;;;;;47.29;14.08;95289.94;5043477;28;21020;-70
2023/05/19 08:00:30;;;;;;;6.43;6.03;;;;;;;47.17;13.64;95281.38;5042641;28;20370;-70
2023/05/19 08:02:58;;;;;;;6.18;5.68;;;;;;;46.82;14.51;95281.47;5042612;28;20328;-68
2023/05/19 08:05:25;;;;;;;6.30;5.80;;;;;;;46.57;14.34;95287.69;5043966;28;20333;-71
2023/05/19 08:07:52;;;;;;;10.50;6.70;;;;;;;46.24;14.48;95284.50;5042557;28;20198;-68
2023/05/19 08:10:19;;;;;;;6.63;6.00;;;;;;;46.77;14.44;95274.25;5042433;28;20290;-70
2023/05/19 08:12:45;;;;;;;7.65;6.90;;;;;;;47.76;13.81;95269.78;5042261;28;21143;-70
2023/05/19 08:15:12;;;;;;;8.38;6.65;;;;;;;45.95;14.78;95281.53;5042737;28;20296;-69
2023/05/19 08:17:38;;;;;;;8.00;7.22;;;;;;;44.20;15.87;95284.69;5042273;28;21824;-68
2023/05/19 08:20:08;;;;;;;8.15;7.43;;;;;;;43.47;16.82;95283.41;5042960;28;22221;-70
2023/05/19 08:22:35;;;;;;;6.97;6.55;;;;;;;44.33;15.86;95292.25;5042350;28;20237;-69
2023/05/19 08:25:04;;;;;;;7.28;6.85;;;;;;;45.42;15.11;95269.31;5043438;28;20284;-70
2023/05/19 08:27:31;;;;;;;12.63;10.45;;;;;;;46.58;14.98;95286.63;5043330;28;20209;-69
2023/05/19 08:29:58;;;;;;;14.90;11.75;;;;;;;46.60;14.69;95276.38;5042370;28;20850;-69
2023/05/19 08:32:25;;;;;;;9.05;7.18;;;;;;;45.97;14.14;95282.06;5041978;28;20684;-71
2023/05/19 08:34:52;;;;;;;11.07;9.52;;;;;;;44.28;15.69;95265.47;5042753;28;20237;-70
2023/05/19 08:37:20;;;;;;;7.32;6.72;;;;;;;43.17;16.31;95272.34;5042542;28;20246;-71
2023/05/19 08:39:46;;;;;;;6.95;6.55;;;;;;;42.88;16.68;95280.53;5042269;28;20329;-68
2023/05/19 08:42:13;;;;;;;10.52;7.38;;;;;;;39.96;18.72;95272.69;5042530;28;20226;-68
2023/05/19 08:44:41;;;;;;;8.20;7.50;;;;;;;39.72;18.73;95277.94;5041954;28;20306;-69
2023/05/19 08:47:12;;;;;;;10.43;8.95;;;;;;;40.42;19.48;95277.28;5043106;28;20289;-72
2023/05/19 08:49:44;;;;;;;7.50;6.82;;;;;;;42.35;17.11;95271.19;5042469;28;22534;-69
2023/05/19 08:52:19;;;;;;;8.05;7.13;;;;;;;42.66;17.12;95277.81;5042432;28;20232;-72
2023/05/19 08:54:54;;;;;;;7.28;6.78;;;;;;;43.36;16.61;95265.63;5042751;28;20224;-69
2023/05/19 08:57:23;;;;;;;12.90;10.98;;;;;;;43.80;16.86;95270.94;5042743;28;20601;-68
2023/05/19 08:59:52;;;;;;;8.45;7.65;;;;;;;44.27;15.91;95271.88;5041557;28;20206;-68
2023/05/19 09:02:19;;;;;;;8.93;8.02;;;;;;;43.04;16.81;95257.50;5043197;28;20946;-68
2023/05/19 09:04:47;;;;;;;8.10;7.40;;;;;;;41.74;17.76;95270.19;5042710;28;20203;-68
2023/05/19 09:07:14;;;;;;;10.07;8.05;;;;;;;40.69;19.62;95261.63;5041312;28;20255;-68
2023/05/19 09:09:42;;;;;;;8.20;7.13;;;;;;;41.55;18.23;95262.59;5042507;28;20206;-70
2023/05/19 09:12:11;;;;;;;8.90;8.10;;;;;;;39.56;18.75;95252.00;5042496;28;20206;-67
2023/05/19 09:14:38;;;;;;;9.20;8.10;;;;;;;38.90;20.03;95252.78;5041892;28;20234;-67
2023/05/19 09:17:05;;;;;;;8.82;8.02;;;;;;;38.82;20.89;95242.47;5039989;28;20242;-68
2023/05/19 09:19:32;;;;;;;8.77;8.00;;;;;;;37.46;21.18;95252.94;5040694;28;20958;-67
2023/05/19 09:22:00;;;;;;;11.18;8.50;;;;;;;33.87;25.45;95257.97;5039395;28;20335;-66
2023/05/19 09:24:27;;;;;;;9.45;8.48;;;;;;;31.16;28.63;95251.47;5040328;28;20703;-68
2023/05/19 09:26:56;;;;;;;9.10;8.07;;;;;;;30.94;29.20;95239.88;5040395;28;20677;-68
2023/05/19 09:29:24;;;;;;;8.95;7.78;;;;;;;31.62;29.21;95247.03;5040525;28;20202;-69
2023/05/19 09:31:53;;;;;;;8.55;7.75;;;;;;;32.49;28.59;95249.25;5041592;28;20769;-68
2023/05/19 09:34:21;;;;;;;12.43;8.25;;;;;;;29.84;31.57;95224.91;5042360;28;20226;-67
2023/05/19 09:36:49;;;;;;;9.95;8.68;;;;;;;29.06;33.21;95256.72;5042831;28;20327;-68
2023/05/19 09:39:16;;;;;;;11.65;8.23;;;;;;;29.16;33.69;95234.84;5041993;28;20210;-69
2023/05/19 09:41:43;;;;;;;9.65;7.82;;;;;;;29.27;34.22;95245.00;5041266;28;20751;-69
2023/05/19 09:44:13;;;;;;;18.92;8.68;;;;;;;29.25;34.37;95244.34;5030878;28;20740;-68
2023/05/19 09:46:49;;;;;;;8.98;7.97;;;;;;;27.72;36.54;95231.13;5029627;28;20747;-68
2023/05/19 09:49:20;;;;;;;9.50;8.63;;;;;;;26.82;38.22;95246.88;5042708;28;20209;-65
2023/05/19 09:51:49;;;;;;;10.77;8.27;;;;;;;26.19;39.55;95246.72;5041567;28;20222;-68
2023/05/19 09:54:16;;;;;;;10.68;8.75;;;;;;;25.70;40.77;95253.00;5041559;28;20254;-69
2023/05/19 09:56:43;;;;;;;13.90;8.82;;;;;;;24.92;42.59;95246.03;5034962;28;20218;-65
2023/05/19 09:59:11;;;;;;;10.23;8.77;;;;;;;24.28;43.36;95251.56;5042404;28;20207;-64
2023/05/19 10:01:40;;;;;;;9.82;8.90;;;;;;;24.06;43.93;95252.50;5042405;28;20287;-67
2023/05/19 10:04:08;;;;;;;14.88;8.88;;;;;;;23.68;44.33;95248.75;5024213;28;20213;-66
2023/05/19 10:06:35;;;;;;;11.95;9.43;;;;;;;23.26;45.26;95247.81;5036088;28;20297;-65
2023/05/19 10:09:03;;;;;;;9.68;8.60;;;;;;;23.25;44.49;95245.38;5043330;28;20749;-66
2023/05/19 10:11:30;;;;;;;11.85;9.50;;;;;;;23.56;45.21;95239.34;5045583;28;20213;-64
2023/05/19 10:13:57;;;;;;;11.02;9.65;;;;;;;23.85;44.99;95239.56;5044367;28;20265;-67
2023/05/19 10:16:27;;;;;;;11.82;8.80;;;;;;;23.97;44.51;95241.16;5045377;28;20340;-67
2023/05/19 10:18:56;;;;;;;12.60;8.75;;;;;;;23.95;44.53;95218.84;5045299;28;20237;-66
2023/05/19 10:21:24;;;;;;;9.18;8.23;;;;;;;23.84;44.05;95242.28;5045623;28;20230;-67
2023/05/19 10:23:51;;;;;;;14.93;8.77;;;;;;;23.78;45.25;95242.78;5045402;28;20217;-67
2023/05/19 10:26:18;;;;;;;9.82;8.23;;;;;;;23.93;43.80;95237.16;5044754;28;20284;-67
2023/05/19 10:28:45;;;;;;;10.90;7.82;;;;;;;24.03;42.72;95240.59;5044913;28;20316;-65
2023/05/19 10:31:18;;;;;;;9.35;8.45;;;;;;;24.15;41.70;95236.16;5045728;28;20289;-68
2023/05/19 10:34:00;;;;;;;9.73;8.70;;;;;;;23.76;42.33;95234.31;5044989;28;20253;-68
2023/05/19 10:36:44;;;;;;;10.45;8.25;;;;;;;23.53;44.61;95225.81;5045248;28;20209;-66
2023/05/19 10:39:18;;;;;;;11.07;8.90;;;;;;;23.69;44.14;95229.63;5045446;28;20206;-67
2023/05/19 10:41:59;;;;;;;11.43;8.27;;;;;;;23.79;44.21;95218.47;5045483;28;20229;-68
2023/05/19 10:44:40;;;;;;;9.93;8.95;;;;;;;24.01;43.31;95231.31;5047280;28;20245;-68
2023/05/19 10:47:07;;;;;;;15.35;9.35;;;;;;;24.20;44.31;95231.41;5044799;28;20329;-67
2023/05/19 10:49:35;;;;;;;10.95;8.43;;;;;;;24.38;43.96;95237.66;5045533;28;20210;-68
2023/05/19 10:52:04;;;;;;;12.68;8.60;;;;;;;24.62;43.24;95223.53;5045683;28;20723;-68
2023/05/19 10:54:42;;;;;;;10.40;9.30;;;;;;;25.04;42.22;95214.59;5044476;28;20320;-68
2023/05/19 10:57:09;;;;;;;35.20;9.23;;;;;;;25.00;40.74;95218.41;5046173;28;20202;-68
2023/05/19 10:59:38;;;;;;;9.48;8.02;;;;;;;24.81;41.46;95222.75;5045184;28;20210;-67
2023/05/19 11:02:05;;;;;;;11.52;8.95;;;;;;;24.90;41.84;95212.38;5044861;28;20694;-67
2023/05/19 11:05:06;;;;;;;20.73;11.15;;;;;;;25.23;40.89;95213.00;5043915;28;20239;-68
2023/05/19 11:07:35;;;;;;;14.13;11.10;;;;;;;25.55;40.32;95203.09;5030322;28;20210;-68
2023/05/19 11:10:06;;;;;;;12.27;10.10;;;;;;;25.68;39.88;95189.84;5045027;28;20324;-68
2023/05/19 11:12:42;;;;;;;10.32;9.38;;;;;;;25.70;39.84;95204.34;5045799;28;20230;-67
2023/05/19 11:15:11;;;;;;;10.93;8.48;;;;;;;25.93;39.65;95199.63;5044481;28;20601;-67
2023/05/19 11:17:40;;;;;;;12.52;8.57;;;;;;;25.76;39.95;95211.56;5043642;28;20680;-67
2023/05/19 11:20:09;;;;;;;12.50;7.80;;;;;;;25.48;39.24;95207.22;5044390;28;20285;-67
2023/05/19 11:22:37;;;;;;;9.27;8.35;;;;;;;25.12;38.86;95210.50;5042699;28;20209;-68
2023/05/19 11:25:05;;;;;;;8.73;7.82;;;;;;;25.25;39.34;95211.03;5045399;28;20198;-68
2023/05/19 11:27:33;;;;;;;14.48;9.38;;;;;;;25.12;38.81;95211.31;5043454;28;20221;-68
2023/05/19 11:30:04;;;;;;;10.30;8.40;;;;;;;25.06;39.81;95215.28;5043520;28;20265;-66
2023/05/19 11:32:32;;;;;;;9.10;8.18;;;;;;;25.02;39.81;95206.09;5045596;28;20202;-67
2023/05/19 11:35:00;;;;;;;9.02;8.32;;;;;;;24.68;39.35;95197.00;5047295;28;20226;-66